Celebrity Galaxy — 9HJH9 — position and weather

sailwx.info

Track history (hours):
 
Tides and Currents Weather Stations Pressure Air Temp Water Temp Dewpoint Dewpoint Depression Visibility Wind Speed Wind Dir Waves Ship Positions

Celebrity Galaxy

Last reported at 2017-Dec-11 10:06 UTC. Time now 2017-Dec-14 15:10 UTC.
Position N 01°17' E 104°07'.

Length 262 m; draft 8.5 m.

Type: Passenger vessel. MMSI: 249051000.

Date/timePositionNaut miles runAvg speedWind from/ knotsBaromVisibWave heightAir tempDewpointWater temp
2017-Dec-11 10:06N 01°17' E 104°07'113.6
2017-Dec-11 10:00N 01°18' E 104°06'2 4.2
2017-Dec-11 09:30N 01°19' E 104°04'0 0.6
2017-Dec-11 08:58N 01°19' E 104°04'1 1.3
2017-Dec-11 08:30N 01°19' E 104°05'9 1.7
2017-Dec-11 03:28N 01°14' E 103°58'816.6
2017-Dec-11 03:00N 01°11' E 103°51'815.8
2017-Dec-11 02:31N 01°07' E 103°45'815.1
2017-Dec-11 02:01N 01°03' E 103°38'917.3
2017-Dec-11 01:29N 01°08' E 103°31'917.6
2017-Dec-11 00:58N 01°13' E 103°23'317 8.3
2017-Dec-09 10:38N 05°31' E 100°19'212.7
2017-Dec-09 10:29N 05°29' E 100°20'4 9.4
2017-Dec-09 10:00N 05°25' E 100°21'0 0.3
2017-Dec-09 09:26N 05°25' E 100°21'0 0.0
2017-Dec-09 08:50N 05°25' E 100°21'0 0.0
2017-Dec-09 08:26N 05°25' E 100°21'0 0.0
2017-Dec-09 07:48N 05°25' E 100°21'0 0.2
2017-Dec-09 07:30N 05°25' E 100°21'0 0.1
2017-Dec-09 07:00N 05°25' E 100°21'0 0.6
2017-Dec-09 06:24N 05°25' E 100°21'0 0.0
2017-Dec-09 06:00N 05°25' E 100°21'0 0.0
2017-Dec-09 05:30N 05°25' E 100°21'0 0.0
2017-Dec-09 05:00N 05°25' E 100°21'0 0.0
2017-Dec-09 04:18N 05°25' E 100°21'0 0.0
2017-Dec-09 04:00N 05°25' E 100°21'0 0.0
2017-Dec-09 03:30N 05°25' E 100°21'0 0.0
2017-Dec-09 02:54N 05°25' E 100°21'0 0.0
2017-Dec-09 00:36N 05°25' E 100°21'0 0.0
2017-Dec-09 00:30N 05°25' E 100°21'0 0.0
2017-Dec-09 00:00N 05°25' E 100°21'0 0.0
2017-Dec-08 23:30N 05°25' E 100°21'0 0.0
2017-Dec-08 22:51N 05°25' E 100°21'1 1.8
2017-Dec-08 22:30N 05°26' E 100°21'4 8.1
2017-Dec-08 22:00N 05°30' E 100°20'612.1
2017-Dec-08 21:30N 05°34' E 100°15'811.1
2017-Dec-08 20:49N 05°38' E 100°09'  
Track history (hours):
 
Tides and Currents Weather Stations Pressure Air Temp Water Temp Dewpoint Dewpoint Depression Visibility Wind Speed Wind Dir Waves Ship Positions

Celebrity Galaxy

Last reported at 2017-Dec-11 10:06 UTC. Time now 2017-Dec-14 15:10 UTC.
Position N 01°17' E 104°07'.

Length 262 m; draft 8.5 m.

Type: Passenger vessel. MMSI: 249051000.

Date/timePositionNaut miles runAvg speedWind from/ knotsBaromVisibWave heightAir tempDewpointWater temp
2017-Dec-11 10:06N 01°17' E 104°07'113.6
2017-Dec-11 10:00N 01°18' E 104°06'2 4.2
2017-Dec-11 09:30N 01°19' E 104°04'0 0.6
2017-Dec-11 08:58N 01°19' E 104°04'1 1.3
2017-Dec-11 08:30N 01°19' E 104°05'9 1.7
2017-Dec-11 03:28N 01°14' E 103°58'816.6
2017-Dec-11 03:00N 01°11' E 103°51'815.8
2017-Dec-11 02:31N 01°07' E 103°45'815.1
2017-Dec-11 02:01N 01°03' E 103°38'917.3
2017-Dec-11 01:29N 01°08' E 103°31'917.6
2017-Dec-11 00:58N 01°13' E 103°23'317 8.3
2017-Dec-09 10:38N 05°31' E 100°19'212.7
2017-Dec-09 10:29N 05°29' E 100°20'4 9.4
2017-Dec-09 10:00N 05°25' E 100°21'0 0.3
2017-Dec-09 09:26N 05°25' E 100°21'0 0.0
2017-Dec-09 08:50N 05°25' E 100°21'0 0.0
2017-Dec-09 08:26N 05°25' E 100°21'0 0.0
2017-Dec-09 07:48N 05°25' E 100°21'0 0.2
2017-Dec-09 07:30N 05°25' E 100°21'0 0.1
2017-Dec-09 07:00N 05°25' E 100°21'0 0.6
2017-Dec-09 06:24N 05°25' E 100°21'0 0.0
2017-Dec-09 06:00N 05°25' E 100°21'0 0.0
2017-Dec-09 05:30N 05°25' E 100°21'0 0.0
2017-Dec-09 05:00N 05°25' E 100°21'0 0.0
2017-Dec-09 04:18N 05°25' E 100°21'0 0.0
2017-Dec-09 04:00N 05°25' E 100°21'0 0.0
2017-Dec-09 03:30N 05°25' E 100°21'0 0.0
2017-Dec-09 02:54N 05°25' E 100°21'0 0.0
2017-Dec-09 00:36N 05°25' E 100°21'0 0.0
2017-Dec-09 00:30N 05°25' E 100°21'0 0.0
2017-Dec-09 00:00N 05°25' E 100°21'0 0.0
2017-Dec-08 23:30N 05°25' E 100°21'0 0.0
2017-Dec-08 22:51N 05°25' E 100°21'1 1.8
2017-Dec-08 22:30N 05°26' E 100°21'4 8.1
2017-Dec-08 22:00N 05°30' E 100°20'612.1
2017-Dec-08 21:30N 05°34' E 100°15'811.1
2017-Dec-08 20:49N 05°38' E 100°09'  

Dump ship's entire track history